sensor_id;sensor_type;location;lat;lon;timestamp;P1;durP1;ratioP1;P2;durP2;ratioP2
21274;SDS011;36472;52.170;20.884;2023-07-08T00:02:18;6.28;;;5.28;;
21274;SDS011;36472;52.170;20.884;2023-07-08T00:04:47;5.15;;;4.20;;
21274;SDS011;36472;52.170;20.884;2023-07-08T00:07:16;5.25;;;3.97;;
21274;SDS011;36472;52.170;20.884;2023-07-08T00:09:49;6.40;;;4.82;;
21274;SDS011;36472;52.170;20.884;2023-07-08T00:12:18;6.50;;;5.32;;
21274;SDS011;36472;52.170;20.884;2023-07-08T00:14:47;5.95;;;4.68;;
21274;SDS011;36472;52.170;20.884;2023-07-08T00:17:17;5.60;;;4.57;;
21274;SDS011;36472;52.170;20.884;2023-07-08T00:19:47;5.28;;;4.53;;
21274;SDS011;36472;52.170;20.884;2023-07-08T00:22:16;5.88;;;4.65;;
21274;SDS011;36472;52.170;20.884;2023-07-08T00:24:45;5.05;;;4.55;;
21274;SDS011;36472;52.170;20.884;2023-07-08T00:27:14;8.13;;;4.93;;
21274;SDS011;36472;52.170;20.884;2023-07-08T00:29:44;7.88;;;5.25;;
21274;SDS011;36472;52.170;20.884;2023-07-08T00:32:15;7.57;;;5.00;;
21274;SDS011;36472;52.170;20.884;2023-07-08T00:34:44;7.35;;;5.00;;
21274;SDS011;36472;52.170;20.884;2023-07-08T00:37:13;5.53;;;4.65;;
21274;SDS011;36472;52.170;20.884;2023-07-08T00:39:42;6.38;;;5.28;;
21274;SDS011;36472;52.170;20.884;2023-07-08T00:42:19;6.03;;;5.10;;
21274;SDS011;36472;52.170;20.884;2023-07-08T00:44:52;7.28;;;5.50;;
21274;SDS011;36472;52.170;20.884;2023-07-08T00:47:23;7.40;;;5.40;;
21274;SDS011;36472;52.170;20.884;2023-07-08T00:49:54;8.02;;;4.95;;
21274;SDS011;36472;52.170;20.884;2023-07-08T00:52:31;6.70;;;5.20;;
21274;SDS011;36472;52.170;20.884;2023-07-08T00:55:04;6.75;;;4.80;;
21274;SDS011;36472;52.170;20.884;2023-07-08T00:57:38;7.15;;;4.68;;
21274;SDS011;36472;52.170;20.884;2023-07-08T01:00:13;6.30;;;5.32;;
21274;SDS011;36472;52.170;20.884;2023-07-08T01:02:47;5.18;;;4.38;;
21274;SDS011;36472;52.170;20.884;2023-07-08T01:05:23;7.35;;;5.10;;
21274;SDS011;36472;52.170;20.884;2023-07-08T01:07:58;5.45;;;4.63;;
21274;SDS011;36472;52.170;20.884;2023-07-08T01:10:39;7.43;;;5.00;;
21274;SDS011;36472;52.170;20.884;2023-07-08T01:13:20;8.00;;;4.75;;
21274;SDS011;36472;52.170;20.884;2023-07-08T01:15:51;7.40;;;5.00;;
21274;SDS011;36472;52.170;20.884;2023-07-08T01:18:22;7.15;;;5.10;;
21274;SDS011;36472;52.170;20.884;2023-07-08T01:20:53;6.80;;;5.20;;
21274;SDS011;36472;52.170;20.884;2023-07-08T01:23:24;6.45;;;5.45;;
21274;SDS011;36472;52.170;20.884;2023-07-08T01:25:54;6.90;;;5.60;;
21274;SDS011;36472;52.170;20.884;2023-07-08T01:28:24;6.45;;;4.65;;
21274;SDS011;36472;52.170;20.884;2023-07-08T01:30:54;7.55;;;5.10;;
21274;SDS011;36472;52.170;20.884;2023-07-08T01:33:24;5.80;;;4.82;;
21274;SDS011;36472;52.170;20.884;2023-07-08T01:35:55;5.15;;;4.65;;
21274;SDS011;36472;52.170;20.884;2023-07-08T01:38:26;5.78;;;4.90;;
21274;SDS011;36472;52.170;20.884;2023-07-08T01:40:57;6.75;;;4.93;;
21274;SDS011;36472;52.170;20.884;2023-07-08T01:43:27;6.05;;;5.38;;
21274;SDS011;36472;52.170;20.884;2023-07-08T01:45:56;6.65;;;5.30;;
21274;SDS011;36472;52.170;20.884;2023-07-08T01:48:31;7.00;;;5.72;;
21274;SDS011;36472;52.170;20.884;2023-07-08T01:51:06;5.75;;;5.15;;
21274;SDS011;36472;52.170;20.884;2023-07-08T01:53:37;7.35;;;5.50;;
21274;SDS011;36472;52.170;20.884;2023-07-08T01:56:09;6.63;;;5.50;;
21274;SDS011;36472;52.170;20.884;2023-07-08T01:58:41;8.02;;;5.43;;
21274;SDS011;36472;52.170;20.884;2023-07-08T02:01:10;6.40;;;5.65;;
21274;SDS011;36472;52.170;20.884;2023-07-08T02:03:39;6.80;;;5.18;;
21274;SDS011;36472;52.170;20.884;2023-07-08T02:06:11;7.82;;;5.18;;
21274;SDS011;36472;52.170;20.884;2023-07-08T02:08:41;11.82;;;6.25;;
21274;SDS011;36472;52.170;20.884;2023-07-08T02:11:10;7.50;;;5.30;;
21274;SDS011;36472;52.170;20.884;2023-07-08T02:13:39;7.50;;;5.80;;
21274;SDS011;36472;52.170;20.884;2023-07-08T02:16:08;6.75;;;5.80;;
21274;SDS011;36472;52.170;20.884;2023-07-08T02:18:37;7.57;;;5.65;;
21274;SDS011;36472;52.170;20.884;2023-07-08T02:21:06;6.28;;;5.63;;
21274;SDS011;36472;52.170;20.884;2023-07-08T02:23:35;5.95;;;5.35;;
21274;SDS011;36472;52.170;20.884;2023-07-08T02:26:06;6.78;;;5.50;;
21274;SDS011;36472;52.170;20.884;2023-07-08T02:28:34;6.75;;;5.50;;
21274;SDS011;36472;52.170;20.884;2023-07-08T02:31:04;6.95;;;5.97;;
21274;SDS011;36472;52.170;20.884;2023-07-08T02:33:33;7.90;;;6.07;;
21274;SDS011;36472;52.170;20.884;2023-07-08T02:36:02;9.35;;;5.50;;
21274;SDS011;36472;52.170;20.884;2023-07-08T02:38:31;6.25;;;5.07;;
21274;SDS011;36472;52.170;20.884;2023-07-08T02:41:00;6.40;;;5.70;;
21274;SDS011;36472;52.170;20.884;2023-07-08T02:43:31;7.82;;;5.55;;
21274;SDS011;36472;52.170;20.884;2023-07-08T02:46:00;5.68;;;5.18;;
21274;SDS011;36472;52.170;20.884;2023-07-08T02:48:28;8.45;;;5.95;;
21274;SDS011;36472;52.170;20.884;2023-07-08T02:50:58;7.80;;;5.70;;
21274;SDS011;36472;52.170;20.884;2023-07-08T02:53:28;6.68;;;5.40;;
21274;SDS011;36472;52.170;20.884;2023-07-08T02:55:58;5.65;;;5.05;;
21274;SDS011;36472;52.170;20.884;2023-07-08T02:58:27;6.50;;;5.43;;
21274;SDS011;36472;52.170;20.884;2023-07-08T03:00:57;6.85;;;5.63;;
21274;SDS011;36472;52.170;20.884;2023-07-08T03:03:28;7.65;;;6.10;;
21274;SDS011;36472;52.170;20.884;2023-07-08T03:05:58;6.30;;;5.40;;
21274;SDS011;36472;52.170;20.884;2023-07-08T03:08:31;8.15;;;5.78;;
21274;SDS011;36472;52.170;20.884;2023-07-08T03:11:01;5.72;;;5.20;;
21274;SDS011;36472;52.170;20.884;2023-07-08T03:13:32;7.28;;;5.60;;
21274;SDS011;36472;52.170;20.884;2023-07-08T03:16:04;7.25;;;5.38;;
21274;SDS011;36472;52.170;20.884;2023-07-08T03:18:40;7.13;;;5.80;;
21274;SDS011;36472;52.170;20.884;2023-07-08T03:21:15;8.05;;;6.20;;
21274;SDS011;36472;52.170;20.884;2023-07-08T03:23:47;6.38;;;5.70;;
21274;SDS011;36472;52.170;20.884;2023-07-08T03:26:18;9.15;;;7.20;;
21274;SDS011;36472;52.170;20.884;2023-07-08T03:28:49;11.60;;;7.55;;
21274;SDS011;36472;52.170;20.884;2023-07-08T03:31:21;9.23;;;7.50;;
21274;SDS011;36472;52.170;20.884;2023-07-08T03:33:50;9.23;;;7.25;;
21274;SDS011;36472;52.170;20.884;2023-07-08T03:36:20;8.40;;;6.78;;
21274;SDS011;36472;52.170;20.884;2023-07-08T03:38:53;7.90;;;6.38;;
21274;SDS011;36472;52.170;20.884;2023-07-08T03:41:24;7.07;;;6.10;;
21274;SDS011;36472;52.170;20.884;2023-07-08T03:43:54;9.10;;;5.85;;
21274;SDS011;36472;52.170;20.884;2023-07-08T03:46:25;6.15;;;5.53;;
21274;SDS011;36472;52.170;20.884;2023-07-08T03:48:54;8.13;;;5.65;;
21274;SDS011;36472;52.170;20.884;2023-07-08T03:51:23;7.55;;;5.97;;
21274;SDS011;36472;52.170;20.884;2023-07-08T03:53:57;8.48;;;6.30;;
21274;SDS011;36472;52.170;20.884;2023-07-08T03:56:28;8.30;;;5.90;;
21274;SDS011;36472;52.170;20.884;2023-07-08T03:58:58;7.80;;;6.05;;
21274;SDS011;36472;52.170;20.884;2023-07-08T04:01:30;7.78;;;6.18;;
21274;SDS011;36472;52.170;20.884;2023-07-08T04:03:59;8.77;;;6.40;;
21274;SDS011;36472;52.170;20.884;2023-07-08T04:06:29;6.72;;;5.97;;
21274;SDS011;36472;52.170;20.884;2023-07-08T04:08:58;7.13;;;6.43;;
21274;SDS011;36472;52.170;20.884;2023-07-08T04:11:27;8.68;;;5.97;;
21274;SDS011;36472;52.170;20.884;2023-07-08T04:13:56;8.43;;;6.10;;
21274;SDS011;36472;52.170;20.884;2023-07-08T04:16:25;8.07;;;5.60;;
21274;SDS011;36472;52.170;20.884;2023-07-08T04:18:59;8.02;;;5.93;;
21274;SDS011;36472;52.170;20.884;2023-07-08T04:26:02;9.15;;;6.65;;
21274;SDS011;36472;52.170;20.884;2023-07-08T04:28:30;8.35;;;6.50;;
21274;SDS011;36472;52.170;20.884;2023-07-08T04:31:00;10.30;;;7.07;;
21274;SDS011;36472;52.170;20.884;2023-07-08T04:33:30;7.45;;;6.47;;
21274;SDS011;36472;52.170;20.884;2023-07-08T04:35:59;7.80;;;7.00;;
21274;SDS011;36472;52.170;20.884;2023-07-08T04:38:29;7.18;;;6.47;;
21274;SDS011;36472;52.170;20.884;2023-07-08T04:40:59;9.05;;;6.55;;
21274;SDS011;36472;52.170;20.884;2023-07-08T04:43:28;7.18;;;6.40;;
21274;SDS011;36472;52.170;20.884;2023-07-08T04:45:57;9.90;;;6.97;;
21274;SDS011;36472;52.170;20.884;2023-07-08T04:48:27;11.85;;;6.97;;
21274;SDS011;36472;52.170;20.884;2023-07-08T04:50:57;6.63;;;5.88;;
21274;SDS011;36472;52.170;20.884;2023-07-08T04:53:26;8.05;;;6.32;;
21274;SDS011;36472;52.170;20.884;2023-07-08T05:00:28;7.28;;;6.53;;
21274;SDS011;36472;52.170;20.884;2023-07-08T05:02:57;7.63;;;6.68;;
21274;SDS011;36472;52.170;20.884;2023-07-08T05:05:26;8.95;;;7.10;;
21274;SDS011;36472;52.170;20.884;2023-07-08T05:07:56;9.23;;;6.95;;
21274;SDS011;36472;52.170;20.884;2023-07-08T05:14:58;9.20;;;5.82;;
21274;SDS011;36472;52.170;20.884;2023-07-08T05:17:27;6.80;;;5.40;;
21274;SDS011;36472;52.170;20.884;2023-07-08T05:19:57;11.05;;;5.88;;
21274;SDS011;36472;52.170;20.884;2023-07-08T05:22:27;7.20;;;5.47;;
21274;SDS011;36472;52.170;20.884;2023-07-08T05:24:58;7.35;;;5.22;;
21274;SDS011;36472;52.170;20.884;2023-07-08T05:31:58;7.22;;;5.15;;
21274;SDS011;36472;52.170;20.884;2023-07-08T05:34:27;6.93;;;5.55;;
21274;SDS011;36472;52.170;20.884;2023-07-08T05:36:56;7.65;;;5.35;;
21274;SDS011;36472;52.170;20.884;2023-07-08T05:43:59;11.30;;;5.35;;
21274;SDS011;36472;52.170;20.884;2023-07-08T05:46:28;13.95;;;5.07;;
21274;SDS011;36472;52.170;20.884;2023-07-08T05:48:57;8.63;;;5.35;;
21274;SDS011;36472;52.170;20.884;2023-07-08T05:51:27;12.80;;;5.07;;
21274;SDS011;36472;52.170;20.884;2023-07-08T05:53:57;9.48;;;4.70;;
21274;SDS011;36472;52.170;20.884;2023-07-08T05:56:26;9.23;;;4.38;;
21274;SDS011;36472;52.170;20.884;2023-07-08T06:03:27;8.88;;;3.97;;
21274;SDS011;36472;52.170;20.884;2023-07-08T06:05:56;5.90;;;4.05;;
21274;SDS011;36472;52.170;20.884;2023-07-08T06:08:25;6.82;;;3.95;;
21274;SDS011;36472;52.170;20.884;2023-07-08T06:10:54;8.70;;;3.50;;
21274;SDS011;36472;52.170;20.884;2023-07-08T06:13:23;5.15;;;3.83;;
21274;SDS011;36472;52.170;20.884;2023-07-08T06:15:52;4.10;;;3.40;;
21274;SDS011;36472;52.170;20.884;2023-07-08T06:18:21;5.63;;;3.10;;
21274;SDS011;36472;52.170;20.884;2023-07-08T06:20:52;3.67;;;3.08;;
21274;SDS011;36472;52.170;20.884;2023-07-08T06:23:23;5.75;;;3.25;;
21274;SDS011;36472;52.170;20.884;2023-07-08T06:25:52;5.38;;;3.28;;
21274;SDS011;36472;52.170;20.884;2023-07-08T06:28:22;3.80;;;3.05;;
21274;SDS011;36472;52.170;20.884;2023-07-08T06:30:51;3.53;;;3.22;;
21274;SDS011;36472;52.170;20.884;2023-07-08T06:33:20;3.85;;;3.35;;
21274;SDS011;36472;52.170;20.884;2023-07-08T06:35:49;5.03;;;3.05;;
21274;SDS011;36472;52.170;20.884;2023-07-08T06:38:19;2.92;;;2.42;;
21274;SDS011;36472;52.170;20.884;2023-07-08T06:40:48;5.93;;;3.30;;
21274;SDS011;36472;52.170;20.884;2023-07-08T06:43:17;5.47;;;2.95;;
21274;SDS011;36472;52.170;20.884;2023-07-08T06:45:54;3.42;;;3.00;;
21274;SDS011;36472;52.170;20.884;2023-07-08T06:48:24;7.03;;;2.90;;
21274;SDS011;36472;52.170;20.884;2023-07-08T06:50:54;8.57;;;2.95;;
21274;SDS011;36472;52.170;20.884;2023-07-08T06:53:23;5.32;;;3.25;;
21274;SDS011;36472;52.170;20.884;2023-07-08T06:55:52;9.50;;;3.10;;
21274;SDS011;36472;52.170;20.884;2023-07-08T06:58:21;4.60;;;2.50;;
21274;SDS011;36472;52.170;20.884;2023-07-08T07:00:51;2.97;;;2.50;;
21274;SDS011;36472;52.170;20.884;2023-07-08T07:03:20;4.47;;;3.00;;
21274;SDS011;36472;52.170;20.884;2023-07-08T07:05:49;4.28;;;3.03;;
21274;SDS011;36472;52.170;20.884;2023-07-08T07:08:19;3.63;;;2.90;;
21274;SDS011;36472;52.170;20.884;2023-07-08T07:10:48;6.18;;;2.45;;
21274;SDS011;36472;52.170;20.884;2023-07-08T07:13:17;2.90;;;2.60;;
21274;SDS011;36472;52.170;20.884;2023-07-08T07:15:47;5.70;;;2.47;;
21274;SDS011;36472;52.170;20.884;2023-07-08T07:18:23;4.00;;;2.50;;
21274;SDS011;36472;52.170;20.884;2023-07-08T07:20:53;4.63;;;2.47;;
21274;SDS011;36472;52.170;20.884;2023-07-08T07:23:24;5.13;;;2.40;;
21274;SDS011;36472;52.170;20.884;2023-07-08T07:30:25;5.43;;;2.50;;
21274;SDS011;36472;52.170;20.884;2023-07-08T07:32:54;4.68;;;2.20;;
21274;SDS011;36472;52.170;20.884;2023-07-08T07:35:27;2.22;;;2.03;;
21274;SDS011;36472;52.170;20.884;2023-07-08T07:37:56;3.92;;;2.28;;
21274;SDS011;36472;52.170;20.884;2023-07-08T07:40:26;3.72;;;1.95;;
21274;SDS011;36472;52.170;20.884;2023-07-08T07:42:55;3.35;;;2.30;;
21274;SDS011;36472;52.170;20.884;2023-07-08T07:45:24;2.38;;;2.00;;
21274;SDS011;36472;52.170;20.884;2023-07-08T07:47:53;2.92;;;1.70;;
21274;SDS011;36472;52.170;20.884;2023-07-08T07:50:22;5.28;;;2.00;;
21274;SDS011;36472;52.170;20.884;2023-07-08T07:52:51;2.92;;;1.95;;
21274;SDS011;36472;52.170;20.884;2023-07-08T07:55:20;5.55;;;2.22;;
21274;SDS011;36472;52.170;20.884;2023-07-08T07:57:50;2.83;;;2.22;;
21274;SDS011;36472;52.170;20.884;2023-07-08T08:04:52;3.92;;;1.85;;
21274;SDS011;36472;52.170;20.884;2023-07-08T08:07:21;5.00;;;2.22;;
21274;SDS011;36472;52.170;20.884;2023-07-08T08:09:50;4.43;;;2.05;;
21274;SDS011;36472;52.170;20.884;2023-07-08T08:12:19;2.47;;;2.10;;
21274;SDS011;36472;52.170;20.884;2023-07-08T08:14:50;3.03;;;2.00;;
21274;SDS011;36472;52.170;20.884;2023-07-08T08:17:19;3.08;;;1.90;;
21274;SDS011;36472;52.170;20.884;2023-07-08T08:19:48;3.70;;;1.88;;
21274;SDS011;36472;52.170;20.884;2023-07-08T08:22:17;3.60;;;1.77;;
21274;SDS011;36472;52.170;20.884;2023-07-08T08:29:20;4.60;;;1.95;;
21274;SDS011;36472;52.170;20.884;2023-07-08T08:36:22;3.92;;;2.20;;
21274;SDS011;36472;52.170;20.884;2023-07-08T08:38:51;3.40;;;2.10;;
21274;SDS011;36472;52.170;20.884;2023-07-08T08:41:29;2.95;;;2.10;;
21274;SDS011;36472;52.170;20.884;2023-07-08T08:53:09;2.95;;;1.90;;
21274;SDS011;36472;52.170;20.884;2023-07-08T08:55:43;3.67;;;2.60;;
21274;SDS011;36472;52.170;20.884;2023-07-08T08:58:23;2.47;;;2.10;;
21274;SDS011;36472;52.170;20.884;2023-07-08T09:01:06;2.22;;;2.05;;
21274;SDS011;36472;52.170;20.884;2023-07-08T09:03:42;3.13;;;1.95;;
21274;SDS011;36472;52.170;20.884;2023-07-08T09:06:18;3.08;;;2.38;;
21274;SDS011;36472;52.170;20.884;2023-07-08T09:08:52;3.60;;;2.30;;
21274;SDS011;36472;52.170;20.884;2023-07-08T09:11:36;3.60;;;2.28;;
21274;SDS011;36472;52.170;20.884;2023-07-08T09:14:14;2.80;;;2.28;;
21274;SDS011;36472;52.170;20.884;2023-07-08T09:16:52;3.40;;;2.50;;
21274;SDS011;36472;52.170;20.884;2023-07-08T09:19:35;4.65;;;2.58;;
21274;SDS011;36472;52.170;20.884;2023-07-08T09:22:11;3.95;;;2.95;;
21274;SDS011;36472;52.170;20.884;2023-07-08T09:24:49;2.95;;;2.60;;
21274;SDS011;36472;52.170;20.884;2023-07-08T09:27:23;3.17;;;2.53;;
21274;SDS011;36472;52.170;20.884;2023-07-08T09:29:52;3.20;;;2.33;;
21274;SDS011;36472;52.170;20.884;2023-07-08T09:32:22;3.30;;;2.20;;
21274;SDS011;36472;52.170;20.884;2023-07-08T09:34:56;3.15;;;2.42;;
21274;SDS011;36472;52.170;20.884;2023-07-08T09:37:35;5.93;;;2.22;;
21274;SDS011;36472;52.170;20.884;2023-07-08T09:40:14;2.35;;;2.15;;
21274;SDS011;36472;52.170;20.884;2023-07-08T09:42:50;2.63;;;2.20;;
21274;SDS011;36472;52.170;20.884;2023-07-08T09:45:24;2.85;;;2.30;;
21274;SDS011;36472;52.170;20.884;2023-07-08T09:47:54;3.40;;;2.33;;
21274;SDS011;36472;52.170;20.884;2023-07-08T09:50:26;3.85;;;2.20;;
21274;SDS011;36472;52.170;20.884;2023-07-08T09:52:58;5.22;;;2.50;;
21274;SDS011;36472;52.170;20.884;2023-07-08T09:55:29;2.90;;;2.13;;
21274;SDS011;36472;52.170;20.884;2023-07-08T09:57:58;2.95;;;2.40;;
21274;SDS011;36472;52.170;20.884;2023-07-08T10:00:33;3.28;;;2.00;;
21274;SDS011;36472;52.170;20.884;2023-07-08T10:03:09;2.30;;;1.83;;
21274;SDS011;36472;52.170;20.884;2023-07-08T10:05:46;2.95;;;2.40;;
21274;SDS011;36472;52.170;20.884;2023-07-08T10:08:18;3.42;;;2.40;;
21274;SDS011;36472;52.170;20.884;2023-07-08T10:10:52;3.30;;;2.47;;
21274;SDS011;36472;52.170;20.884;2023-07-08T10:13:32;3.17;;;2.55;;
21274;SDS011;36472;52.170;20.884;2023-07-08T10:16:11;3.47;;;2.40;;
21274;SDS011;36472;52.170;20.884;2023-07-08T10:18:44;3.45;;;2.53;;
21274;SDS011;36472;52.170;20.884;2023-07-08T10:21:14;3.60;;;2.00;;
21274;SDS011;36472;52.170;20.884;2023-07-08T10:24:00;4.18;;;2.30;;
21274;SDS011;36472;52.170;20.884;2023-07-08T10:31:14;4.60;;;2.28;;
21274;SDS011;36472;52.170;20.884;2023-07-08T10:34:00;3.92;;;2.25;;
21274;SDS011;36472;52.170;20.884;2023-07-08T10:36:53;2.47;;;2.28;;
21274;SDS011;36472;52.170;20.884;2023-07-08T10:39:44;2.95;;;2.22;;
21274;SDS011;36472;52.170;20.884;2023-07-08T10:42:31;3.38;;;2.20;;
21274;SDS011;36472;52.170;20.884;2023-07-08T10:45:26;2.28;;;2.05;;
21274;SDS011;36472;52.170;20.884;2023-07-08T10:48:06;2.22;;;2.00;;
21274;SDS011;36472;52.170;20.884;2023-07-08T10:50:55;2.78;;;2.00;;
21274;SDS011;36472;52.170;20.884;2023-07-08T10:53:46;3.35;;;2.10;;
21274;SDS011;36472;52.170;20.884;2023-07-08T10:56:33;2.22;;;1.88;;
21274;SDS011;36472;52.170;20.884;2023-07-08T10:59:18;3.53;;;2.10;;
21274;SDS011;36472;52.170;20.884;2023-07-08T11:06:14;2.92;;;1.92;;
21274;SDS011;36472;52.170;20.884;2023-07-08T11:08:50;2.67;;;1.98;;
21274;SDS011;36472;52.170;20.884;2023-07-08T11:11:27;2.33;;;2.10;;
21274;SDS011;36472;52.170;20.884;2023-07-08T11:14:09;3.95;;;2.50;;
21274;SDS011;36472;52.170;20.884;2023-07-08T11:16:45;2.67;;;2.17;;
21274;SDS011;36472;52.170;20.884;2023-07-08T11:24:54;2.70;;;1.98;;
21274;SDS011;36472;52.170;20.884;2023-07-08T11:27:37;2.63;;;2.25;;
21274;SDS011;36472;52.170;20.884;2023-07-08T11:30:12;4.25;;;2.28;;
21274;SDS011;36472;52.170;20.884;2023-07-08T11:32:45;4.22;;;2.38;;
21274;SDS011;36472;52.170;20.884;2023-07-08T11:35:26;2.75;;;2.20;;
21274;SDS011;36472;52.170;20.884;2023-07-08T11:38:06;2.78;;;2.15;;
21274;SDS011;36472;52.170;20.884;2023-07-08T11:40:52;4.43;;;2.38;;
21274;SDS011;36472;52.170;20.884;2023-07-08T11:48:03;3.03;;;2.78;;
21274;SDS011;36472;52.170;20.884;2023-07-08T11:50:39;3.60;;;2.10;;
21274;SDS011;36472;52.170;20.884;2023-07-08T11:53:12;3.53;;;2.22;;
21274;SDS011;36472;52.170;20.884;2023-07-08T11:56:03;4.22;;;2.45;;
21274;SDS011;36472;52.170;20.884;2023-07-08T12:03:23;3.97;;;2.47;;
21274;SDS011;36472;52.170;20.884;2023-07-08T12:06:03;2.50;;;2.30;;
21274;SDS011;36472;52.170;20.884;2023-07-08T12:13:49;3.72;;;2.60;;
21274;SDS011;36472;52.170;20.884;2023-07-08T12:16:19;2.80;;;2.50;;
21274;SDS011;36472;52.170;20.884;2023-07-08T12:18:50;4.72;;;2.42;;
21274;SDS011;36472;52.170;20.884;2023-07-08T12:21:22;3.90;;;2.88;;
21274;SDS011;36472;52.170;20.884;2023-07-08T12:23:54;2.97;;;2.67;;
21274;SDS011;36472;52.170;20.884;2023-07-08T12:26:23;2.50;;;2.30;;
21274;SDS011;36472;52.170;20.884;2023-07-08T12:28:54;2.53;;;2.22;;
21274;SDS011;36472;52.170;20.884;2023-07-08T12:31:24;4.45;;;2.40;;
21274;SDS011;36472;52.170;20.884;2023-07-08T12:33:54;4.30;;;2.67;;
21274;SDS011;36472;52.170;20.884;2023-07-08T12:36:24;2.40;;;2.20;;
21274;SDS011;36472;52.170;20.884;2023-07-08T12:38:57;3.53;;;2.70;;
21274;SDS011;36472;52.170;20.884;2023-07-08T12:41:30;3.33;;;2.88;;
21274;SDS011;36472;52.170;20.884;2023-07-08T12:44:07;3.63;;;2.40;;
21274;SDS011;36472;52.170;20.884;2023-07-08T12:51:17;4.10;;;2.35;;
21274;SDS011;36472;52.170;20.884;2023-07-08T12:53:50;3.25;;;2.40;;
21274;SDS011;36472;52.170;20.884;2023-07-08T13:00:55;2.50;;;2.30;;
21274;SDS011;36472;52.170;20.884;2023-07-08T13:03:29;4.20;;;2.80;;
21274;SDS011;36472;52.170;20.884;2023-07-08T13:06:03;2.78;;;2.53;;
21274;SDS011;36472;52.170;20.884;2023-07-08T13:08:34;4.72;;;2.92;;
21274;SDS011;36472;52.170;20.884;2023-07-08T13:11:06;2.90;;;2.60;;
21274;SDS011;36472;52.170;20.884;2023-07-08T13:13:36;4.68;;;2.80;;
21274;SDS011;36472;52.170;20.884;2023-07-08T13:16:14;2.60;;;2.40;;
21274;SDS011;36472;52.170;20.884;2023-07-08T13:18:44;4.32;;;2.40;;
21274;SDS011;36472;52.170;20.884;2023-07-08T13:21:14;4.20;;;2.55;;
21274;SDS011;36472;52.170;20.884;2023-07-08T13:23:44;3.03;;;2.72;;
21274;SDS011;36472;52.170;20.884;2023-07-08T13:26:15;3.72;;;2.70;;
21274;SDS011;36472;52.170;20.884;2023-07-08T13:28:46;2.95;;;2.75;;
21274;SDS011;36472;52.170;20.884;2023-07-08T13:31:18;6.03;;;2.63;;
21274;SDS011;36472;52.170;20.884;2023-07-08T13:33:52;2.78;;;2.58;;
21274;SDS011;36472;52.170;20.884;2023-07-08T13:36:28;4.13;;;2.97;;
21274;SDS011;36472;52.170;20.884;2023-07-08T13:39:01;3.30;;;2.78;;
21274;SDS011;36472;52.170;20.884;2023-07-08T13:41:35;6.03;;;3.20;;
21274;SDS011;36472;52.170;20.884;2023-07-08T13:44:04;2.70;;;2.20;;
21274;SDS011;36472;52.170;20.884;2023-07-08T13:46:38;3.78;;;2.88;;
21274;SDS011;36472;52.170;20.884;2023-07-08T13:49:15;4.53;;;2.30;;
21274;SDS011;36472;52.170;20.884;2023-07-08T13:51:51;2.65;;;2.45;;
21274;SDS011;36472;52.170;20.884;2023-07-08T13:54:32;3.15;;;2.67;;
21274;SDS011;36472;52.170;20.884;2023-07-08T13:57:08;3.40;;;2.28;;
21274;SDS011;36472;52.170;20.884;2023-07-08T14:04:13;2.97;;;2.40;;
21274;SDS011;36472;52.170;20.884;2023-07-08T14:06:47;3.45;;;2.53;;
21274;SDS011;36472;52.170;20.884;2023-07-08T14:09:17;4.07;;;2.63;;
21274;SDS011;36472;52.170;20.884;2023-07-08T14:11:49;3.10;;;2.40;;
21274;SDS011;36472;52.170;20.884;2023-07-08T14:14:21;2.95;;;2.67;;
21274;SDS011;36472;52.170;20.884;2023-07-08T14:16:51;3.92;;;2.50;;
21274;SDS011;36472;52.170;20.884;2023-07-08T14:19:25;4.18;;;2.30;;
21274;SDS011;36472;52.170;20.884;2023-07-08T14:26:29;2.97;;;2.65;;
21274;SDS011;36472;52.170;20.884;2023-07-08T14:28:58;2.50;;;2.30;;
21274;SDS011;36472;52.170;20.884;2023-07-08T14:31:40;2.85;;;2.25;;
21274;SDS011;36472;52.170;20.884;2023-07-08T14:34:11;2.60;;;2.40;;
21274;SDS011;36472;52.170;20.884;2023-07-08T14:36:51;3.22;;;2.90;;
21274;SDS011;36472;52.170;20.884;2023-07-08T14:39:20;3.33;;;2.80;;
21274;SDS011;36472;52.170;20.884;2023-07-08T14:41:49;6.18;;;2.70;;
21274;SDS011;36472;52.170;20.884;2023-07-08T14:44:22;2.83;;;2.60;;
21274;SDS011;36472;52.170;20.884;2023-07-08T14:46:58;2.75;;;2.55;;
21274;SDS011;36472;52.170;20.884;2023-07-08T14:49:27;3.22;;;2.33;;
21274;SDS011;36472;52.170;20.884;2023-07-08T14:51:58;3.33;;;2.95;;
21274;SDS011;36472;52.170;20.884;2023-07-08T14:54:27;2.53;;;2.15;;
21274;SDS011;36472;52.170;20.884;2023-07-08T14:56:56;3.78;;;2.30;;
21274;SDS011;36472;52.170;20.884;2023-07-08T14:59:27;2.75;;;2.55;;
21274;SDS011;36472;52.170;20.884;2023-07-08T15:06:33;3.30;;;2.33;;
21274;SDS011;36472;52.170;20.884;2023-07-08T15:09:03;2.60;;;2.40;;
21274;SDS011;36472;52.170;20.884;2023-07-08T15:11:33;4.82;;;2.53;;
21274;SDS011;36472;52.170;20.884;2023-07-08T15:14:05;4.05;;;2.63;;
21274;SDS011;36472;52.170;20.884;2023-07-08T15:16:45;3.78;;;2.50;;
21274;SDS011;36472;52.170;20.884;2023-07-08T15:19:14;2.72;;;2.42;;
21274;SDS011;36472;52.170;20.884;2023-07-08T15:21:44;3.17;;;2.40;;
21274;SDS011;36472;52.170;20.884;2023-07-08T15:24:15;2.65;;;2.42;;
21274;SDS011;36472;52.170;20.884;2023-07-08T15:26:45;2.45;;;2.25;;
21274;SDS011;36472;52.170;20.884;2023-07-08T15:29:17;2.83;;;2.40;;
21274;SDS011;36472;52.170;20.884;2023-07-08T15:31:50;2.70;;;2.40;;
21274;SDS011;36472;52.170;20.884;2023-07-08T15:34:20;3.25;;;2.35;;
21274;SDS011;36472;52.170;20.884;2023-07-08T15:36:51;4.00;;;2.33;;
21274;SDS011;36472;52.170;20.884;2023-07-08T15:39:21;2.75;;;2.05;;
21274;SDS011;36472;52.170;20.884;2023-07-08T15:41:51;2.88;;;2.30;;
21274;SDS011;36472;52.170;20.884;2023-07-08T15:44:20;4.60;;;2.80;;
21274;SDS011;36472;52.170;20.884;2023-07-08T15:46:50;5.82;;;2.70;;
21274;SDS011;36472;52.170;20.884;2023-07-08T15:49:20;3.92;;;2.65;;
21274;SDS011;36472;52.170;20.884;2023-07-08T15:51:53;3.33;;;2.40;;
21274;SDS011;36472;52.170;20.884;2023-07-08T15:54:24;3.80;;;2.65;;
21274;SDS011;36472;52.170;20.884;2023-07-08T16:01:27;2.58;;;2.38;;
21274;SDS011;36472;52.170;20.884;2023-07-08T16:03:56;5.35;;;2.85;;
21274;SDS011;36472;52.170;20.884;2023-07-08T16:06:26;3.03;;;2.42;;
21274;SDS011;36472;52.170;20.884;2023-07-08T16:08:55;2.80;;;2.33;;
21274;SDS011;36472;52.170;20.884;2023-07-08T16:11:26;2.78;;;2.40;;
21274;SDS011;36472;52.170;20.884;2023-07-08T16:13:59;2.67;;;2.30;;
21274;SDS011;36472;52.170;20.884;2023-07-08T16:16:29;3.83;;;2.47;;
21274;SDS011;36472;52.170;20.884;2023-07-08T16:19:00;4.25;;;2.80;;
21274;SDS011;36472;52.170;20.884;2023-07-08T16:21:29;4.28;;;2.63;;
21274;SDS011;36472;52.170;20.884;2023-07-08T16:23:58;3.17;;;2.88;;
21274;SDS011;36472;52.170;20.884;2023-07-08T16:26:29;3.17;;;2.33;;
21274;SDS011;36472;52.170;20.884;2023-07-08T16:28:58;3.92;;;2.40;;
21274;SDS011;36472;52.170;20.884;2023-07-08T16:31:27;3.17;;;2.58;;
21274;SDS011;36472;52.170;20.884;2023-07-08T16:33:58;4.72;;;3.13;;
21274;SDS011;36472;52.170;20.884;2023-07-08T16:36:27;3.08;;;2.80;;
21274;SDS011;36472;52.170;20.884;2023-07-08T16:38:57;3.53;;;2.75;;
21274;SDS011;36472;52.170;20.884;2023-07-08T16:46:03;3.97;;;2.70;;
21274;SDS011;36472;52.170;20.884;2023-07-08T16:48:32;4.70;;;2.70;;
21274;SDS011;36472;52.170;20.884;2023-07-08T16:51:02;3.13;;;2.75;;
21274;SDS011;36472;52.170;20.884;2023-07-08T16:53:31;3.28;;;2.50;;
21274;SDS011;36472;52.170;20.884;2023-07-08T16:56:01;3.65;;;2.63;;
21274;SDS011;36472;52.170;20.884;2023-07-08T16:58:29;27.17;;;4.13;;